首页
METAR-TAF:

METAR-TAF

机场 :

布加勒斯特奥托佩尼-亨利·科安德国际机场

布加勒斯特, 罗马尼亚

纬度: 44-33N, 经度: 026-06E, 海拔: 95米

当前天气观测

该预报发布于37分钟前的10:00 UTC
风速3节,风向西转西北
温度 7°C
湿度 81%
气压 1018 hPa
能見度: 8000

METAR: LROP 081000Z 29003KT 8000 NSC 07/04 Q1018 NOSIG

时间: 12:37 (10:37 UTC)

预报

该预报发布于5小时和37分钟前的05:00 UTC
预报有效从08日的 06点(UTC)到 09日的 06点(UTC)
风速4节,风向多变
能見度: 3000
轻雾
几率 30% :
短暂存在
从 08日的 06点(UTC)到 08日的 07点(UTC)
能見度: 1500
轻雾
成为
从 08日的 07点(UTC)到 08日的 09点(UTC)
能见度10公里或以上
成为
从 08日的 16点(UTC)到 08日的 18点(UTC)
能見度: 3000
轻雾
成为
从 08日的 19点(UTC)到 08日的 21点(UTC)
能見度: 1500
轻雾
成为
从 08日的 21点(UTC)到 08日的 23点(UTC)
能見度: 0500
多云层高于100英尺
冻雾
短暂存在
从 09日的 00点(UTC)到 09日的 06点(UTC)
能見度: 0150
冻雾

TAF: LROP 080500Z 0806/0906 VRB04KT 3000 BR NSC PROB30 TEMPO 0806/0807 1500 BR BECMG 0807/0809 9999 NSW BECMG 0816/0818 3000 BR BECMG 0819/0821 1500 BR BECMG 0821/0823 0500 FZFG BKN001 TEMPO 0900/0906 0150 FZFG

超过4000个机场的气象观测和天气预报(METAR&TAF报告)。

可查询的气象台以黄色和红色小点在地图上表示。

将鼠标移到小点上方,可查看气象台名称。

然后点击查看天气观测和预报。

如需切换地图:点击带黑十字的绿色按钮放大地图;点击带横线的绿色按钮缩小地图;或者点击绿色箭头查看邻近地区的地图。


METAR-TAF: